createdAt,value
2023-01-21T00:01:23.391Z,22.44
2023-01-21T00:03:49.789Z,22.40
2023-01-21T00:06:16.316Z,22.38
2023-01-21T00:08:42.717Z,22.36
2023-01-21T00:11:14.235Z,22.38
2023-01-21T00:13:40.602Z,22.37
2023-01-21T00:16:07.115Z,22.35
2023-01-21T00:18:33.603Z,22.33
2023-01-21T00:20:59.930Z,22.32
2023-01-21T00:23:26.237Z,22.28
2023-01-21T00:26:01.787Z,22.26
2023-01-21T00:28:28.880Z,22.22
2023-01-21T00:31:01.767Z,22.18
2023-01-21T00:33:28.195Z,22.15
2023-01-21T00:36:00.864Z,22.15
2023-01-21T00:38:27.175Z,22.11
2023-01-21T00:40:53.493Z,22.08
2023-01-21T00:43:19.816Z,22.07
2023-01-21T00:45:46.136Z,22.09
2023-01-21T00:48:12.484Z,22.10
2023-01-21T00:50:39.064Z,22.12
2023-01-21T00:53:05.386Z,22.10
2023-01-21T00:55:31.701Z,22.09
2023-01-21T00:57:58.158Z,22.08
2023-01-21T01:00:24.538Z,22.04
2023-01-21T01:02:50.873Z,22.03
2023-01-21T01:05:17.355Z,21.99
2023-01-21T01:07:46.002Z,21.95
2023-01-21T01:10:12.356Z,21.94
2023-01-21T01:12:38.713Z,21.90
2023-01-21T01:15:05.282Z,21.88
2023-01-21T01:17:31.631Z,21.86
2023-01-21T01:19:58.124Z,21.88
2023-01-21T01:22:24.437Z,21.86
2023-01-21T01:24:50.763Z,21.85
2023-01-21T01:27:17.084Z,21.83
2023-01-21T01:29:43.387Z,21.83
2023-01-21T01:32:09.715Z,21.79
2023-01-21T01:34:36.901Z,21.76
2023-01-21T01:37:03.519Z,21.73
2023-01-21T01:39:29.831Z,21.69
2023-01-21T01:41:56.172Z,21.65
2023-01-21T01:44:41.132Z,21.63
2023-01-21T01:47:07.449Z,21.59
2023-01-21T01:49:33.757Z,21.58
2023-01-21T01:52:01.226Z,21.55
2023-01-21T01:54:28.598Z,21.57
2023-01-21T01:56:55.421Z,21.59
2023-01-21T01:59:21.747Z,21.54
2023-01-21T02:01:48.133Z,21.52
2023-01-21T02:04:15.845Z,21.50
2023-01-21T02:06:42.155Z,21.49
2023-01-21T02:09:08.572Z,21.47
2023-01-21T02:11:35.060Z,21.46
2023-01-21T02:14:01.365Z,21.43
2023-01-21T02:16:42.899Z,21.41
2023-01-21T02:19:19.074Z,21.35
2023-01-21T02:21:51.523Z,21.33
2023-01-21T02:24:36.255Z,21.28
2023-01-21T02:30:36.038Z,21.32
2023-01-21T02:33:05.486Z,21.32
2023-01-21T02:35:43.116Z,21.30
2023-01-21T02:38:12.146Z,21.27
2023-01-21T02:40:41.021Z,21.25
2023-01-21T02:43:14.332Z,21.22
2023-01-21T02:45:43.520Z,21.19
2023-01-21T02:48:14.159Z,21.17
2023-01-21T02:50:47.800Z,21.13
2023-01-21T02:53:27.489Z,21.13
2023-01-21T02:55:53.863Z,21.11
2023-01-21T02:58:21.991Z,21.06
2023-01-21T03:01:03.987Z,21.14
2023-01-21T03:03:34.271Z,21.16
2023-01-21T03:06:09.723Z,21.17
2023-01-21T03:08:46.183Z,21.14
2023-01-21T03:11:16.059Z,21.11
2023-01-21T03:14:02.238Z,21.08
2023-01-21T03:16:49.548Z,21.03
2023-01-21T03:19:15.840Z,20.98
2023-01-21T03:21:42.121Z,20.95
2023-01-21T03:24:08.416Z,20.95
2023-01-21T03:26:38.892Z,20.90
2023-01-21T03:29:13.395Z,20.87
2023-01-21T03:31:40.018Z,20.89
2023-01-21T03:34:07.315Z,20.90
2023-01-21T03:36:50.820Z,20.95
2023-01-21T03:39:23.117Z,20.95
2023-01-21T03:41:49.417Z,20.92
2023-01-21T03:44:15.747Z,20.92
2023-01-21T03:47:02.138Z,20.87
2023-01-21T03:49:30.086Z,20.86
2023-01-21T03:51:56.922Z,20.86
2023-01-21T03:54:23.228Z,20.83
2023-01-21T03:56:49.767Z,20.80
2023-01-21T03:59:16.104Z,20.78
2023-01-21T04:01:42.415Z,20.78
2023-01-21T04:04:08.979Z,20.76
2023-01-21T04:06:36.699Z,20.74
2023-01-21T04:09:03.979Z,20.73
2023-01-21T04:11:30.288Z,20.72
2023-01-21T04:13:56.609Z,20.70
2023-01-21T04:16:22.979Z,20.65
2023-01-21T04:18:49.350Z,20.64
2023-01-21T04:21:15.658Z,20.63
2023-01-21T04:23:41.981Z,20.60
2023-01-21T04:26:08.307Z,20.60
2023-01-21T04:28:34.641Z,20.57
2023-01-21T04:31:00.969Z,20.56
2023-01-21T04:33:27.321Z,20.52
2023-01-21T04:35:59.724Z,20.51
2023-01-21T04:38:26.422Z,20.50
2023-01-21T04:40:52.728Z,20.47
2023-01-21T04:43:19.047Z,20.45
2023-01-21T04:45:45.423Z,20.45
2023-01-21T04:48:11.762Z,20.40
2023-01-21T04:50:38.089Z,20.39
2023-01-21T04:53:04.404Z,20.35
2023-01-21T04:55:30.712Z,20.32
2023-01-21T04:57:57.041Z,20.31
2023-01-21T05:00:23.413Z,20.30
2023-01-21T05:02:49.753Z,20.28
2023-01-21T05:05:16.052Z,20.43
2023-01-21T05:07:42.355Z,20.48
2023-01-21T05:10:09.800Z,20.53
2023-01-21T05:12:36.112Z,20.57
2023-01-21T05:15:02.449Z,20.59
2023-01-21T05:17:28.776Z,20.61
2023-01-21T05:19:55.108Z,20.61
2023-01-21T05:22:21.666Z,20.60
2023-01-21T05:24:47.991Z,20.58
2023-01-21T05:27:14.300Z,20.56
2023-01-21T05:29:40.634Z,20.57
2023-01-21T05:32:06.968Z,20.56
2023-01-21T05:34:33.281Z,20.52
2023-01-21T05:36:59.583Z,20.51
2023-01-21T05:39:25.900Z,20.50
2023-01-21T05:41:52.210Z,20.51
2023-01-21T05:44:18.528Z,20.45
2023-01-21T05:46:44.832Z,20.45
2023-01-21T05:49:11.253Z,20.45
2023-01-21T05:51:37.568Z,20.42
2023-01-21T05:54:03.913Z,20.39
2023-01-21T05:56:30.225Z,20.38
2023-01-21T05:58:56.538Z,20.33
2023-01-21T06:01:22.832Z,20.33
2023-01-21T06:03:49.223Z,20.32
2023-01-21T06:06:15.561Z,20.40
2023-01-21T06:08:41.938Z,20.47
2023-01-21T06:11:08.242Z,20.51
2023-01-21T06:13:34.611Z,20.54
2023-01-21T06:16:00.969Z,20.56
2023-01-21T06:18:27.313Z,20.57
2023-01-21T06:20:53.619Z,20.62
2023-01-21T06:23:19.984Z,20.67
2023-01-21T06:25:46.291Z,20.69
2023-01-21T06:28:12.626Z,20.71
2023-01-21T06:30:38.942Z,20.70
2023-01-21T06:33:05.276Z,20.74
2023-01-21T06:35:31.613Z,20.76
2023-01-21T06:37:57.937Z,20.81
2023-01-21T06:40:24.278Z,20.83
2023-01-21T06:42:50.588Z,20.84
2023-01-21T06:45:17.169Z,20.83
2023-01-21T06:47:43.722Z,20.82
2023-01-21T06:50:13.729Z,20.82
2023-01-21T06:52:40.310Z,20.80
2023-01-21T06:55:06.723Z,20.75
2023-01-21T06:57:33.029Z,20.71
2023-01-21T06:59:59.364Z,20.67
2023-01-21T07:02:26.042Z,20.63
2023-01-21T07:04:52.428Z,20.61
2023-01-21T07:07:18.758Z,20.65
2023-01-21T07:09:45.120Z,20.72
2023-01-21T07:12:11.435Z,20.79
2023-01-21T07:14:37.790Z,20.80
2023-01-21T07:17:04.108Z,20.82
2023-01-21T07:19:30.444Z,20.83
2023-01-21T07:21:56.752Z,20.78
2023-01-21T07:24:23.111Z,20.79
2023-01-21T07:26:49.458Z,20.78
2023-01-21T07:29:15.776Z,20.77
2023-01-21T07:31:42.139Z,20.75
2023-01-21T07:34:08.490Z,20.74
2023-01-21T07:36:34.803Z,20.74
2023-01-21T07:39:01.128Z,20.77
2023-01-21T07:41:27.446Z,20.90
2023-01-21T07:43:53.829Z,20.97
2023-01-21T07:46:20.321Z,21.09
2023-01-21T07:48:50.991Z,21.18
2023-01-21T07:51:18.060Z,21.27
2023-01-21T07:53:44.403Z,21.23
2023-01-21T07:56:11.008Z,21.26
2023-01-21T07:58:37.696Z,21.28
2023-01-21T08:01:04.579Z,21.27
2023-01-21T08:03:30.913Z,21.24
2023-01-21T08:05:57.232Z,21.25
2023-01-21T08:08:23.539Z,21.24
2023-01-21T08:10:53.391Z,21.18
2023-01-21T08:13:19.704Z,21.20
2023-01-21T08:15:49.265Z,21.30
2023-01-21T08:18:15.567Z,21.42
2023-01-21T08:20:41.960Z,21.51
2023-01-21T08:23:08.292Z,21.55
2023-01-21T08:25:34.648Z,21.48
2023-01-21T08:28:00.966Z,21.41
2023-01-21T08:30:27.488Z,21.36
2023-01-21T08:32:53.800Z,21.38
2023-01-21T08:35:20.129Z,21.28
2023-01-21T08:37:46.655Z,21.27
2023-01-21T08:40:13.047Z,21.28
2023-01-21T08:42:39.387Z,21.36
2023-01-21T08:45:05.974Z,21.34
2023-01-21T08:47:32.287Z,21.26
2023-01-21T08:49:58.670Z,21.36
2023-01-21T08:52:25.084Z,21.33
2023-01-21T08:54:51.409Z,21.29
2023-01-21T08:57:17.721Z,21.23
2023-01-21T08:59:44.049Z,21.23
2023-01-21T09:02:10.761Z,21.24
2023-01-21T09:04:37.118Z,21.25
2023-01-21T09:07:03.421Z,21.24
2023-01-21T09:09:29.830Z,21.22
2023-01-21T09:11:56.375Z,21.17
2023-01-21T09:14:22.726Z,21.16
2023-01-21T09:16:49.501Z,21.13
2023-01-21T09:19:15.989Z,21.11
2023-01-21T09:21:42.303Z,21.08
2023-01-21T09:24:08.650Z,21.06
2023-01-21T09:26:34.984Z,21.08
2023-01-21T09:29:01.298Z,21.13
2023-01-21T09:31:28.062Z,21.16
2023-01-21T09:34:01.110Z,21.16
2023-01-21T09:36:28.307Z,21.19
2023-01-21T09:38:54.619Z,21.21
2023-01-21T09:41:39.921Z,21.22
2023-01-21T09:44:27.427Z,21.24
2023-01-21T09:47:04.129Z,21.26
2023-01-21T09:49:30.383Z,21.26
2023-01-21T09:51:59.060Z,21.25
2023-01-21T09:54:26.592Z,21.21
2023-01-21T09:56:59.759Z,21.17
2023-01-21T09:59:37.322Z,21.18
2023-01-21T10:02:03.698Z,21.21
2023-01-21T10:04:34.296Z,21.26
2023-01-21T10:07:03.285Z,21.27
2023-01-21T10:09:41.634Z,21.25
2023-01-21T10:12:20.521Z,21.24
2023-01-21T10:15:05.801Z,21.21
2023-01-21T10:17:51.908Z,21.20
2023-01-21T10:20:27.289Z,21.16
2023-01-21T10:22:57.809Z,21.12
2023-01-21T10:25:31.396Z,21.10
2023-01-21T10:28:13.624Z,21.06
2023-01-21T10:30:40.410Z,21.07
2023-01-21T10:33:07.096Z,21.13
2023-01-21T10:35:52.171Z,21.21
2023-01-21T10:38:37.003Z,21.26
2023-01-21T10:41:18.523Z,21.28
2023-01-21T10:43:56.073Z,21.30
2023-01-21T10:46:31.531Z,21.33
2023-01-21T10:49:00.801Z,21.38
2023-01-21T10:51:29.160Z,21.44
2023-01-21T10:54:00.473Z,21.42
2023-01-21T10:56:29.106Z,21.43
2023-01-21T10:58:56.463Z,21.42
2023-01-21T11:01:24.987Z,21.41
2023-01-21T11:03:52.747Z,21.37
2023-01-21T11:06:19.212Z,21.37
2023-01-21T11:08:46.745Z,21.35
2023-01-21T11:11:13.107Z,21.38
2023-01-21T11:13:41.213Z,21.41
2023-01-21T11:16:07.664Z,21.46
2023-01-21T11:18:37.835Z,21.49
2023-01-21T11:21:10.143Z,21.49
2023-01-21T11:23:39.112Z,21.47
2023-01-21T11:26:25.700Z,21.46
2023-01-21T11:29:10.885Z,21.44
2023-01-21T11:31:37.320Z,21.37
2023-01-21T11:34:13.422Z,21.35
2023-01-21T11:36:53.172Z,21.31
2023-01-21T11:39:20.022Z,21.37
2023-01-21T11:41:53.089Z,21.46
2023-01-21T11:44:19.976Z,21.53
2023-01-21T11:46:46.319Z,21.56
2023-01-21T11:49:15.427Z,21.59
2023-01-21T11:51:42.009Z,21.56
2023-01-21T11:54:14.184Z,21.52
2023-01-21T11:56:43.164Z,21.52
2023-01-21T11:59:23.575Z,21.49
2023-01-21T12:01:53.350Z,21.45
2023-01-21T12:04:19.664Z,21.44
2023-01-21T12:06:46.474Z,21.42
2023-01-21T12:09:14.055Z,21.39
2023-01-21T12:11:40.366Z,21.42
2023-01-21T12:14:25.046Z,21.52
2023-01-21T12:16:51.286Z,21.55
2023-01-21T12:19:40.094Z,21.55
2023-01-21T12:22:27.618Z,21.54
2023-01-21T12:25:12.923Z,21.53
2023-01-21T12:27:42.194Z,21.47
2023-01-21T12:30:26.550Z,21.44
2023-01-21T12:32:56.651Z,21.40
2023-01-21T12:35:41.947Z,21.37
2023-01-21T12:38:11.460Z,21.33
2023-01-21T12:40:45.874Z,21.32
2023-01-21T12:43:16.755Z,21.24
2023-01-21T12:45:51.222Z,21.19
2023-01-21T12:48:34.265Z,21.26
2023-01-21T12:51:19.567Z,21.46
2023-01-21T12:54:04.514Z,21.51
2023-01-21T12:56:49.782Z,21.66
2023-01-21T12:59:31.145Z,21.91
2023-01-21T13:01:59.553Z,22.00
2023-01-21T13:04:44.633Z,22.00
2023-01-21T13:07:29.847Z,22.08
2023-01-21T13:09:59.101Z,22.17
2023-01-21T13:12:25.872Z,22.31
2023-01-21T13:14:57.097Z,22.42
2023-01-21T13:17:28.201Z,22.59
2023-01-21T13:19:54.520Z,22.74
2023-01-21T13:22:24.545Z,22.81
2023-01-21T13:25:02.139Z,22.93
2023-01-21T13:27:31.508Z,22.93
2023-01-21T13:30:09.773Z,22.92
2023-01-21T13:32:51.639Z,22.92
2023-01-21T13:35:36.872Z,22.90
2023-01-21T13:38:14.053Z,22.90
2023-01-21T13:40:49.704Z,22.92
2023-01-21T13:43:35.006Z,22.96
2023-01-21T13:46:04.736Z,22.91
2023-01-21T13:48:38.730Z,22.98
2023-01-21T13:51:24.751Z,22.98
2023-01-21T13:54:03.608Z,22.98
2023-01-21T13:56:49.803Z,22.97
2023-01-21T13:59:17.713Z,22.99
2023-01-21T14:01:45.721Z,23.00
2023-01-21T14:04:13.664Z,23.02
2023-01-21T14:06:41.899Z,23.06
2023-01-21T14:09:09.946Z,23.07
2023-01-21T14:11:38.122Z,22.99
2023-01-21T14:14:04.385Z,23.04
2023-01-21T14:16:50.019Z,23.02
2023-01-21T14:19:32.830Z,23.00
2023-01-21T14:22:11.307Z,22.93
2023-01-21T14:24:51.599Z,22.93
2023-01-21T14:27:32.446Z,22.91
2023-01-21T14:30:04.881Z,22.93
2023-01-21T14:32:34.034Z,22.91
2023-01-21T14:35:07.317Z,23.01
2023-01-21T14:37:38.671Z,22.94
2023-01-21T14:40:08.094Z,22.86
2023-01-21T14:42:40.231Z,22.86
2023-01-21T14:45:07.942Z,22.86
2023-01-21T14:47:44.636Z,22.84
2023-01-21T14:50:10.959Z,22.80
2023-01-21T14:52:41.625Z,22.79
2023-01-21T14:55:24.255Z,22.74
2023-01-21T14:57:50.912Z,22.70
2023-01-21T15:00:24.171Z,22.71
2023-01-21T15:02:54.515Z,22.70
2023-01-21T15:05:20.769Z,22.66
2023-01-21T15:07:47.256Z,22.60
2023-01-21T15:10:25.976Z,22.54
2023-01-21T15:12:53.612Z,22.50
2023-01-21T15:15:28.377Z,22.51
2023-01-21T15:17:54.858Z,22.53
2023-01-21T15:20:39.913Z,22.54
2023-01-21T15:23:25.196Z,22.54
2023-01-21T15:26:12.917Z,22.52
2023-01-21T15:28:45.324Z,22.50
2023-01-21T15:31:20.721Z,22.48
2023-01-21T15:34:00.944Z,22.47
2023-01-21T15:36:27.960Z,22.46
2023-01-21T15:38:54.826Z,22.45
2023-01-21T15:41:27.259Z,22.44
2023-01-21T15:44:04.215Z,22.43
2023-01-21T15:46:36.693Z,22.40
2023-01-21T15:49:06.069Z,22.38
2023-01-21T15:51:41.517Z,22.38
2023-01-21T15:54:26.199Z,22.33
2023-01-21T15:57:07.725Z,22.46
2023-01-21T15:59:46.178Z,22.48
2023-01-21T16:02:18.317Z,22.47
2023-01-21T16:04:47.245Z,22.50
2023-01-21T16:07:19.394Z,22.47
2023-01-21T16:09:55.633Z,22.46
2023-01-21T16:12:25.028Z,22.44
2023-01-21T16:14:55.864Z,22.48
2023-01-21T16:17:34.156Z,22.51
2023-01-21T16:20:00.480Z,22.49
2023-01-21T16:22:28.084Z,22.49
2023-01-21T16:24:58.455Z,22.48
2023-01-21T16:27:25.631Z,22.44
2023-01-21T16:29:55.921Z,22.45
2023-01-21T16:32:22.311Z,22.48
2023-01-21T16:34:48.708Z,22.50
2023-01-21T16:37:15.722Z,22.52
2023-01-21T16:39:42.047Z,22.54
2023-01-21T16:42:14.092Z,22.58
2023-01-21T16:44:40.410Z,22.59
2023-01-21T16:47:08.849Z,22.71
2023-01-21T16:49:35.153Z,22.84
2023-01-21T16:52:01.824Z,22.90
2023-01-21T16:54:31.865Z,23.00
2023-01-21T16:57:01.809Z,23.12
2023-01-21T16:59:41.133Z,23.13
2023-01-21T17:02:33.649Z,23.18
2023-01-21T17:05:04.953Z,23.20
2023-01-21T17:07:32.259Z,23.31
2023-01-21T17:10:05.823Z,23.38
2023-01-21T17:12:34.028Z,23.55
2023-01-21T17:15:02.795Z,23.74
2023-01-21T17:17:30.113Z,23.85
2023-01-21T17:19:56.628Z,23.93
2023-01-21T17:22:23.106Z,23.83
2023-01-21T17:24:54.882Z,23.79
2023-01-21T17:27:23.194Z,23.76
2023-01-21T17:29:49.769Z,23.64
2023-01-21T17:32:21.886Z,23.74
2023-01-21T17:35:02.252Z,23.83
2023-01-21T17:37:40.733Z,23.91
2023-01-21T17:40:14.132Z,24.01
2023-01-21T17:42:40.644Z,24.04
2023-01-21T17:45:07.157Z,24.11
2023-01-21T17:47:34.655Z,24.13
2023-01-21T17:50:08.726Z,24.18
2023-01-21T17:52:35.049Z,24.20
2023-01-21T17:55:16.756Z,24.22
2023-01-21T17:57:43.321Z,24.27
2023-01-21T18:00:25.020Z,24.50
2023-01-21T18:02:51.354Z,24.70
2023-01-21T18:05:18.377Z,24.72
2023-01-21T18:07:44.867Z,24.72
2023-01-21T18:10:15.243Z,24.41
2023-01-21T18:12:41.566Z,24.43
2023-01-21T18:15:08.061Z,24.39
2023-01-21T18:17:34.435Z,24.43
2023-01-21T18:20:00.755Z,24.41
2023-01-21T18:22:28.098Z,24.38
2023-01-21T18:24:54.454Z,24.37
2023-01-21T18:27:25.601Z,24.34
2023-01-21T18:29:52.219Z,24.32
2023-01-21T18:32:18.558Z,24.29
2023-01-21T18:34:46.734Z,24.31
2023-01-21T18:37:13.431Z,24.32
2023-01-21T18:39:39.995Z,24.31
2023-01-21T18:42:06.534Z,24.18
2023-01-21T18:44:32.899Z,24.14
2023-01-21T18:46:59.215Z,24.09
2023-01-21T18:49:27.615Z,24.04
2023-01-21T18:51:53.947Z,24.02
2023-01-21T18:54:20.263Z,24.02
2023-01-21T18:56:46.583Z,23.93
2023-01-21T18:59:13.691Z,23.88
2023-01-21T19:01:40.382Z,23.91
2023-01-21T19:04:09.549Z,23.91
2023-01-21T19:06:36.099Z,23.94
2023-01-21T19:09:02.473Z,23.92
2023-01-21T19:11:28.785Z,23.89
2023-01-21T19:13:55.190Z,23.89
2023-01-21T19:16:21.887Z,23.88
2023-01-21T19:18:48.367Z,23.83
2023-01-21T19:21:14.953Z,23.80
2023-01-21T19:23:41.337Z,23.80
2023-01-21T19:26:08.299Z,23.77
2023-01-21T19:28:34.642Z,23.76
2023-01-21T19:31:01.046Z,23.71
2023-01-21T19:33:27.421Z,23.68
2023-01-21T19:35:58.190Z,23.67
2023-01-21T19:38:26.242Z,23.65
2023-01-21T19:40:52.576Z,23.67
2023-01-21T19:43:21.549Z,23.63
2023-01-21T19:45:48.094Z,23.61
2023-01-21T19:48:15.319Z,23.68
2023-01-21T19:50:41.622Z,23.88
2023-01-21T19:53:09.487Z,23.93
2023-01-21T19:55:36.197Z,23.94
2023-01-21T19:58:04.020Z,23.92
2023-01-21T20:00:34.127Z,23.91
2023-01-21T20:03:00.552Z,23.90
2023-01-21T20:05:27.516Z,23.90
2023-01-21T20:07:53.826Z,23.86
2023-01-21T20:10:20.893Z,23.82
2023-01-21T20:12:47.360Z,23.78
2023-01-21T20:15:17.858Z,23.79
2023-01-21T20:17:49.051Z,23.71
2023-01-21T20:20:22.201Z,23.69
2023-01-21T20:22:48.563Z,23.66
2023-01-21T20:25:16.335Z,23.64
2023-01-21T20:27:43.239Z,23.62
2023-01-21T20:30:26.616Z,23.62
2023-01-21T20:32:53.086Z,23.58
2023-01-21T20:35:19.577Z,23.57
2023-01-21T20:37:48.725Z,23.55
2023-01-21T20:40:25.011Z,23.49
2023-01-21T20:42:51.519Z,23.45
2023-01-21T20:45:18.395Z,23.48
2023-01-21T20:47:50.121Z,23.38
2023-01-21T20:50:18.522Z,23.36
2023-01-21T20:52:44.885Z,23.35
2023-01-21T20:55:11.724Z,23.31
2023-01-21T20:57:38.042Z,23.30
2023-01-21T21:00:05.321Z,23.25
2023-01-21T21:02:31.656Z,23.30
2023-01-21T21:04:57.991Z,23.29
2023-01-21T21:07:26.488Z,23.24
2023-01-21T21:09:56.945Z,23.24
2023-01-21T21:12:23.813Z,23.21
2023-01-21T21:14:50.137Z,23.20
2023-01-21T21:17:16.698Z,23.19
2023-01-21T21:19:43.032Z,23.16
2023-01-21T21:22:09.441Z,23.15
2023-01-21T21:24:35.766Z,23.13
2023-01-21T21:27:03.484Z,23.12
2023-01-21T21:29:29.887Z,23.11
2023-01-21T21:31:57.046Z,23.07
2023-01-21T21:34:25.994Z,23.07
2023-01-21T21:36:52.316Z,23.03
2023-01-21T21:39:19.555Z,22.99
2023-01-21T21:42:04.609Z,22.97
2023-01-21T21:44:30.984Z,22.93
2023-01-21T21:47:16.258Z,22.91
2023-01-21T21:49:42.605Z,22.86
2023-01-21T21:52:08.944Z,22.85
2023-01-21T21:54:35.312Z,22.86
2023-01-21T21:57:01.821Z,22.81
2023-01-21T21:59:28.215Z,22.78
2023-01-21T22:01:54.626Z,22.79
2023-01-21T22:04:22.057Z,22.74
2023-01-21T22:06:48.381Z,22.70
2023-01-21T22:09:14.704Z,22.70
2023-01-21T22:11:41.021Z,22.68
2023-01-21T22:14:07.905Z,22.66
2023-01-21T22:16:34.336Z,22.65
2023-01-21T22:19:00.869Z,22.59
2023-01-21T22:21:28.161Z,22.55
2023-01-21T22:23:54.640Z,22.60
2023-01-21T22:26:21.666Z,22.54
2023-01-21T22:28:48.000Z,22.52
2023-01-21T22:31:18.891Z,22.58
2023-01-21T22:33:45.340Z,22.79
2023-01-21T22:36:12.831Z,22.89
2023-01-21T22:38:40.741Z,22.98
2023-01-21T22:41:07.298Z,23.00
2023-01-21T22:43:34.068Z,23.12
2023-01-21T22:46:00.429Z,23.16
2023-01-21T22:48:26.779Z,23.11
2023-01-21T22:50:56.527Z,23.19
2023-01-21T22:53:22.985Z,23.23
2023-01-21T22:56:02.308Z,23.26
2023-01-21T22:58:28.982Z,23.18
2023-01-21T23:00:55.549Z,23.40
2023-01-21T23:03:22.685Z,23.37
2023-01-21T23:05:49.346Z,23.40
2023-01-21T23:08:15.948Z,23.45
2023-01-21T23:10:42.672Z,23.49
2023-01-21T23:13:09.323Z,23.51
2023-01-21T23:15:35.660Z,23.51
2023-01-21T23:18:02.010Z,23.51
2023-01-21T23:20:28.860Z,23.54
2023-01-21T23:22:56.261Z,23.59
2023-01-21T23:25:22.561Z,23.61
2023-01-21T23:27:48.889Z,23.59
2023-01-21T23:30:15.648Z,23.62
2023-01-21T23:32:42.091Z,23.67
2023-01-21T23:35:08.579Z,23.70
2023-01-21T23:37:35.230Z,23.67
2023-01-21T23:40:01.576Z,23.63
2023-01-21T23:42:27.888Z,23.59
2023-01-21T23:44:54.203Z,23.59
2023-01-21T23:47:20.714Z,23.65
2023-01-21T23:49:47.047Z,23.61
2023-01-21T23:52:13.425Z,23.63
2023-01-21T23:54:39.900Z,23.55
2023-01-21T23:57:06.404Z,23.59
2023-01-21T23:59:32.775Z,23.64
